sensor_id;sensor_type;location;lat;lon;timestamp;temperature;humidity
67899;DHT22;54699;51.796;10.956;2023-01-04T00:01:21;17.50;48.70
67899;DHT22;54699;51.796;10.956;2023-01-04T00:03:48;17.50;48.70
67899;DHT22;54699;51.796;10.956;2023-01-04T00:06:15;17.50;48.80
67899;DHT22;54699;51.796;10.956;2023-01-04T00:08:42;17.50;48.70
67899;DHT22;54699;51.796;10.956;2023-01-04T00:11:11;17.50;48.60
67899;DHT22;54699;51.796;10.956;2023-01-04T00:13:39;17.50;48.70
67899;DHT22;54699;51.796;10.956;2023-01-04T00:16:06;17.50;48.60
67899;DHT22;54699;51.796;10.956;2023-01-04T00:18:35;17.50;48.70
67899;DHT22;54699;51.796;10.956;2023-01-04T00:21:06;17.50;48.70
67899;DHT22;54699;51.796;10.956;2023-01-04T00:23:34;17.50;48.70
67899;DHT22;54699;51.796;10.956;2023-01-04T00:26:01;17.50;49.60
67899;DHT22;54699;51.796;10.956;2023-01-04T00:28:33;17.50;48.60
67899;DHT22;54699;51.796;10.956;2023-01-04T00:31:01;17.50;49.60
67899;DHT22;54699;51.796;10.956;2023-01-04T00:33:28;17.50;48.70
67899;DHT22;54699;51.796;10.956;2023-01-04T00:35:55;17.40;48.60
67899;DHT22;54699;51.796;10.956;2023-01-04T00:38:22;17.50;48.70
67899;DHT22;54699;51.796;10.956;2023-01-04T00:40:48;17.50;48.70
67899;DHT22;54699;51.796;10.956;2023-01-04T00:43:15;17.50;48.60
67899;DHT22;54699;51.796;10.956;2023-01-04T00:45:43;17.50;48.60
67899;DHT22;54699;51.796;10.956;2023-01-04T00:48:10;17.40;48.70
67899;DHT22;54699;51.796;10.956;2023-01-04T00:50:36;17.50;48.70
67899;DHT22;54699;51.796;10.956;2023-01-04T00:53:03;17.50;48.80
67899;DHT22;54699;51.796;10.956;2023-01-04T00:55:30;17.40;48.60
67899;DHT22;54699;51.796;10.956;2023-01-04T00:57:57;17.40;48.60
67899;DHT22;54699;51.796;10.956;2023-01-04T01:00:24;17.40;48.60
67899;DHT22;54699;51.796;10.956;2023-01-04T01:02:52;17.40;48.60
67899;DHT22;54699;51.796;10.956;2023-01-04T01:05:18;17.50;48.70
67899;DHT22;54699;51.796;10.956;2023-01-04T01:07:45;17.40;48.60
67899;DHT22;54699;51.796;10.956;2023-01-04T01:10:11;17.40;48.70
67899;DHT22;54699;51.796;10.956;2023-01-04T01:12:38;17.40;48.80
67899;DHT22;54699;51.796;10.956;2023-01-04T01:15:05;17.50;48.70
67899;DHT22;54699;51.796;10.956;2023-01-04T01:17:33;17.40;48.70
67899;DHT22;54699;51.796;10.956;2023-01-04T01:20:02;17.40;48.70
67899;DHT22;54699;51.796;10.956;2023-01-04T01:22:31;17.40;48.70
67899;DHT22;54699;51.796;10.956;2023-01-04T01:25:00;17.40;48.80
67899;DHT22;54699;51.796;10.956;2023-01-04T01:27:27;17.40;48.70
67899;DHT22;54699;51.796;10.956;2023-01-04T01:29:53;17.40;48.70
67899;DHT22;54699;51.796;10.956;2023-01-04T01:32:20;17.40;48.80
67899;DHT22;54699;51.796;10.956;2023-01-04T01:34:47;17.40;48.70
67899;DHT22;54699;51.796;10.956;2023-01-04T01:37:15;17.40;48.80
67899;DHT22;54699;51.796;10.956;2023-01-04T01:39:41;17.40;48.70
67899;DHT22;54699;51.796;10.956;2023-01-04T01:42:14;17.40;48.80
67899;DHT22;54699;51.796;10.956;2023-01-04T01:44:53;17.40;48.70
67899;DHT22;54699;51.796;10.956;2023-01-04T01:47:25;17.40;48.70
67899;DHT22;54699;51.796;10.956;2023-01-04T01:49:55;17.40;48.70
67899;DHT22;54699;51.796;10.956;2023-01-04T01:52:24;17.40;48.80
67899;DHT22;54699;51.796;10.956;2023-01-04T01:54:55;17.40;48.70
67899;DHT22;54699;51.796;10.956;2023-01-04T01:57:26;17.30;48.70
67899;DHT22;54699;51.796;10.956;2023-01-04T01:59:56;17.40;48.70
67899;DHT22;54699;51.796;10.956;2023-01-04T02:02:27;17.40;48.70
67899;DHT22;54699;51.796;10.956;2023-01-04T02:04:54;17.40;48.70
67899;DHT22;54699;51.796;10.956;2023-01-04T02:07:21;17.40;48.70
67899;DHT22;54699;51.796;10.956;2023-01-04T02:09:52;17.40;48.60
67899;DHT22;54699;51.796;10.956;2023-01-04T02:12:20;17.30;48.70
67899;DHT22;54699;51.796;10.956;2023-01-04T02:14:47;17.30;48.70
67899;DHT22;54699;51.796;10.956;2023-01-04T02:17:22;17.30;48.70
67899;DHT22;54699;51.796;10.956;2023-01-04T02:20:07;17.40;48.70
67899;DHT22;54699;51.796;10.956;2023-01-04T02:22:53;17.40;49.60
67899;DHT22;54699;51.796;10.956;2023-01-04T02:28:41;17.30;48.60
67899;DHT22;54699;51.796;10.956;2023-01-04T02:31:28;17.30;48.70
67899;DHT22;54699;51.796;10.956;2023-01-04T02:34:03;17.30;48.70
67899;DHT22;54699;51.796;10.956;2023-01-04T02:36:36;17.30;48.60
67899;DHT22;54699;51.796;10.956;2023-01-04T02:39:11;17.30;48.70
67899;DHT22;54699;51.796;10.956;2023-01-04T02:41:46;17.30;48.60
67899;DHT22;54699;51.796;10.956;2023-01-04T02:44:18;17.30;48.70
67899;DHT22;54699;51.796;10.956;2023-01-04T02:47:13;17.30;48.60
67899;DHT22;54699;51.796;10.956;2023-01-04T02:49:42;17.30;48.60
67899;DHT22;54699;51.796;10.956;2023-01-04T02:52:26;17.30;48.70
67899;DHT22;54699;51.796;10.956;2023-01-04T02:54:54;17.30;48.60
67899;DHT22;54699;51.796;10.956;2023-01-04T02:57:29;17.30;48.60
67899;DHT22;54699;51.796;10.956;2023-01-04T03:00:12;17.30;48.70
67899;DHT22;54699;51.796;10.956;2023-01-04T03:02:55;17.30;48.80
67899;DHT22;54699;51.796;10.956;2023-01-04T03:05:49;17.30;48.70
67899;DHT22;54699;51.796;10.956;2023-01-04T03:08:44;17.30;48.70
67899;DHT22;54699;51.796;10.956;2023-01-04T03:11:19;17.30;48.70
67899;DHT22;54699;51.796;10.956;2023-01-04T03:14:14;17.30;48.70
67899;DHT22;54699;51.796;10.956;2023-01-04T03:16:44;17.30;48.70
67899;DHT22;54699;51.796;10.956;2023-01-04T03:19:13;17.30;48.80
67899;DHT22;54699;51.796;10.956;2023-01-04T03:22:02;17.30;48.70
67899;DHT22;54699;51.796;10.956;2023-01-04T03:24:51;17.30;48.90
67899;DHT22;54699;51.796;10.956;2023-01-04T03:27:49;17.30;48.70
67899;DHT22;54699;51.796;10.956;2023-01-04T03:30:40;17.30;48.70
67899;DHT22;54699;51.796;10.956;2023-01-04T03:33:30;17.30;48.70
67899;DHT22;54699;51.796;10.956;2023-01-04T03:36:17;17.30;48.90
67899;DHT22;54699;51.796;10.956;2023-01-04T03:38:53;17.30;48.70
67899;DHT22;54699;51.796;10.956;2023-01-04T03:41:43;17.30;48.80
67899;DHT22;54699;51.796;10.956;2023-01-04T03:44:33;17.30;48.80
67899;DHT22;54699;51.796;10.956;2023-01-04T03:47:21;17.30;48.70
67899;DHT22;54699;51.796;10.956;2023-01-04T03:50:12;17.30;48.70
67899;DHT22;54699;51.796;10.956;2023-01-04T03:52:44;17.30;48.70
67899;DHT22;54699;51.796;10.956;2023-01-04T03:55:12;17.30;48.70
67899;DHT22;54699;51.796;10.956;2023-01-04T03:57:41;17.30;48.70
67899;DHT22;54699;51.796;10.956;2023-01-04T04:00:10;17.30;48.70
67899;DHT22;54699;51.796;10.956;2023-01-04T04:02:40;17.30;48.70
67899;DHT22;54699;51.796;10.956;2023-01-04T04:05:09;17.30;48.80
67899;DHT22;54699;51.796;10.956;2023-01-04T04:07:59;17.30;48.60
67899;DHT22;54699;51.796;10.956;2023-01-04T04:10:43;17.30;48.80
67899;DHT22;54699;51.796;10.956;2023-01-04T04:13:10;17.30;48.80
67899;DHT22;54699;51.796;10.956;2023-01-04T04:15:37;17.30;48.70
67899;DHT22;54699;51.796;10.956;2023-01-04T04:18:05;17.30;48.70
67899;DHT22;54699;51.796;10.956;2023-01-04T04:20:32;17.30;48.70
67899;DHT22;54699;51.796;10.956;2023-01-04T04:22:59;17.30;48.70
67899;DHT22;54699;51.796;10.956;2023-01-04T04:25:25;17.20;48.70
67899;DHT22;54699;51.796;10.956;2023-01-04T04:27:52;17.30;49.00
67899;DHT22;54699;51.796;10.956;2023-01-04T04:30:19;17.20;48.70
67899;DHT22;54699;51.796;10.956;2023-01-04T04:32:45;17.20;48.90
67899;DHT22;54699;51.796;10.956;2023-01-04T04:35:13;17.20;48.70
67899;DHT22;54699;51.796;10.956;2023-01-04T04:37:40;17.20;48.70
67899;DHT22;54699;51.796;10.956;2023-01-04T04:40:07;17.30;48.70
67899;DHT22;54699;51.796;10.956;2023-01-04T04:42:55;17.30;48.70
67899;DHT22;54699;51.796;10.956;2023-01-04T04:45:20;17.20;48.70
67899;DHT22;54699;51.796;10.956;2023-01-04T04:47:47;17.30;48.70
67899;DHT22;54699;51.796;10.956;2023-01-04T04:50:15;17.20;48.80
67899;DHT22;54699;51.796;10.956;2023-01-04T04:52:42;17.30;48.80
67899;DHT22;54699;51.796;10.956;2023-01-04T04:55:08;17.30;48.70
67899;DHT22;54699;51.796;10.956;2023-01-04T04:57:35;17.30;48.80
67899;DHT22;54699;51.796;10.956;2023-01-04T05:00:02;17.30;48.70
67899;DHT22;54699;51.796;10.956;2023-01-04T05:02:29;17.30;48.70
67899;DHT22;54699;51.796;10.956;2023-01-04T05:04:55;17.30;48.60
67899;DHT22;54699;51.796;10.956;2023-01-04T05:07:23;17.30;48.60
67899;DHT22;54699;51.796;10.956;2023-01-04T05:09:50;17.20;48.80
67899;DHT22;54699;51.796;10.956;2023-01-04T05:12:17;17.30;48.70
67899;DHT22;54699;51.796;10.956;2023-01-04T05:15:01;17.30;48.60
67899;DHT22;54699;51.796;10.956;2023-01-04T05:17:28;17.30;48.60
67899;DHT22;54699;51.796;10.956;2023-01-04T05:19:54;17.20;48.60
67899;DHT22;54699;51.796;10.956;2023-01-04T05:22:21;17.30;48.60
67899;DHT22;54699;51.796;10.956;2023-01-04T05:24:49;17.20;48.70
67899;DHT22;54699;51.796;10.956;2023-01-04T05:27:16;17.30;48.60
67899;DHT22;54699;51.796;10.956;2023-01-04T05:29:42;17.30;48.70
67899;DHT22;54699;51.796;10.956;2023-01-04T05:32:26;17.30;48.60
67899;DHT22;54699;51.796;10.956;2023-01-04T05:34:53;17.30;48.70
67899;DHT22;54699;51.796;10.956;2023-01-04T05:37:20;17.30;48.60
67899;DHT22;54699;51.796;10.956;2023-01-04T05:39:46;17.20;48.50
67899;DHT22;54699;51.796;10.956;2023-01-04T05:42:14;17.30;48.50
67899;DHT22;54699;51.796;10.956;2023-01-04T05:44:50;17.30;48.50
67899;DHT22;54699;51.796;10.956;2023-01-04T05:47:17;17.30;48.50
67899;DHT22;54699;51.796;10.956;2023-01-04T05:49:44;17.30;48.60
67899;DHT22;54699;51.796;10.956;2023-01-04T05:52:10;17.30;48.50
67899;DHT22;54699;51.796;10.956;2023-01-04T05:54:37;17.20;48.50
67899;DHT22;54699;51.796;10.956;2023-01-04T05:57:04;17.30;48.60
67899;DHT22;54699;51.796;10.956;2023-01-04T05:59:33;17.20;48.50
67899;DHT22;54699;51.796;10.956;2023-01-04T06:01:59;17.20;48.50
67899;DHT22;54699;51.796;10.956;2023-01-04T06:04:26;17.20;48.50
67899;DHT22;54699;51.796;10.956;2023-01-04T06:06:53;17.20;48.50
67899;DHT22;54699;51.796;10.956;2023-01-04T06:09:19;17.20;48.50
67899;DHT22;54699;51.796;10.956;2023-01-04T06:11:46;17.20;48.50
67899;DHT22;54699;51.796;10.956;2023-01-04T06:14:12;17.20;48.40
67899;DHT22;54699;51.796;10.956;2023-01-04T06:16:40;17.20;48.50
67899;DHT22;54699;51.796;10.956;2023-01-04T06:19:07;17.20;48.50
67899;DHT22;54699;51.796;10.956;2023-01-04T06:21:34;17.20;48.40
67899;DHT22;54699;51.796;10.956;2023-01-04T06:24:01;17.20;48.40
67899;DHT22;54699;51.796;10.956;2023-01-04T06:26:27;17.20;48.50
67899;DHT22;54699;51.796;10.956;2023-01-04T06:28:54;17.20;48.60
67899;DHT22;54699;51.796;10.956;2023-01-04T06:31:21;17.20;48.50
67899;DHT22;54699;51.796;10.956;2023-01-04T06:33:49;17.20;48.50
67899;DHT22;54699;51.796;10.956;2023-01-04T06:36:15;17.20;48.50
67899;DHT22;54699;51.796;10.956;2023-01-04T06:38:42;17.20;48.60
67899;DHT22;54699;51.796;10.956;2023-01-04T06:41:09;17.20;48.60
67899;DHT22;54699;51.796;10.956;2023-01-04T06:43:35;17.20;48.40
67899;DHT22;54699;51.796;10.956;2023-01-04T06:46:02;17.20;48.60
67899;DHT22;54699;51.796;10.956;2023-01-04T06:48:29;17.20;48.50
67899;DHT22;54699;51.796;10.956;2023-01-04T06:50:57;17.20;48.50
67899;DHT22;54699;51.796;10.956;2023-01-04T06:53:24;17.20;48.60
67899;DHT22;54699;51.796;10.956;2023-01-04T06:55:50;17.20;48.50
67899;DHT22;54699;51.796;10.956;2023-01-04T06:58:17;17.20;48.50
67899;DHT22;54699;51.796;10.956;2023-01-04T07:00:44;17.10;48.60
67899;DHT22;54699;51.796;10.956;2023-01-04T07:03:11;17.10;48.60
67899;DHT22;54699;51.796;10.956;2023-01-04T07:05:38;17.20;48.60
67899;DHT22;54699;51.796;10.956;2023-01-04T07:08:06;17.20;48.50
67899;DHT22;54699;51.796;10.956;2023-01-04T07:10:32;17.10;48.60
67899;DHT22;54699;51.796;10.956;2023-01-04T07:12:59;17.10;48.60
67899;DHT22;54699;51.796;10.956;2023-01-04T07:15:26;17.10;48.50
67899;DHT22;54699;51.796;10.956;2023-01-04T07:17:53;17.10;48.50
67899;DHT22;54699;51.796;10.956;2023-01-04T07:20:19;17.10;48.50
67899;DHT22;54699;51.796;10.956;2023-01-04T07:22:46;17.20;48.60
67899;DHT22;54699;51.796;10.956;2023-01-04T07:25:14;17.10;48.50
67899;DHT22;54699;51.796;10.956;2023-01-04T07:27:41;17.10;48.60
67899;DHT22;54699;51.796;10.956;2023-01-04T07:30:08;17.10;48.50
67899;DHT22;54699;51.796;10.956;2023-01-04T07:32:36;17.20;48.50
67899;DHT22;54699;51.796;10.956;2023-01-04T07:35:02;17.20;48.60
67899;DHT22;54699;51.796;10.956;2023-01-04T07:37:29;17.10;48.60
67899;DHT22;54699;51.796;10.956;2023-01-04T07:39:56;17.10;48.60
67899;DHT22;54699;51.796;10.956;2023-01-04T07:42:24;17.10;48.60
67899;DHT22;54699;51.796;10.956;2023-01-04T07:44:51;17.20;48.60
67899;DHT22;54699;51.796;10.956;2023-01-04T07:47:17;17.10;48.60
67899;DHT22;54699;51.796;10.956;2023-01-04T07:49:44;17.10;48.60
67899;DHT22;54699;51.796;10.956;2023-01-04T07:52:12;17.10;48.50
67899;DHT22;54699;51.796;10.956;2023-01-04T07:54:39;17.10;48.60
67899;DHT22;54699;51.796;10.956;2023-01-04T07:57:06;17.10;48.60
67899;DHT22;54699;51.796;10.956;2023-01-04T07:59:34;17.10;48.80
67899;DHT22;54699;51.796;10.956;2023-01-04T08:02:00;17.10;48.70
67899;DHT22;54699;51.796;10.956;2023-01-04T08:04:27;17.20;48.90
67899;DHT22;54699;51.796;10.956;2023-01-04T08:06:53;17.10;48.70
67899;DHT22;54699;51.796;10.956;2023-01-04T08:09:20;17.10;48.60
67899;DHT22;54699;51.796;10.956;2023-01-04T08:11:47;17.20;48.70
67899;DHT22;54699;51.796;10.956;2023-01-04T08:14:13;17.10;48.80
67899;DHT22;54699;51.796;10.956;2023-01-04T08:16:41;17.10;48.60
67899;DHT22;54699;51.796;10.956;2023-01-04T08:19:11;17.10;48.80
67899;DHT22;54699;51.796;10.956;2023-01-04T08:21:39;17.10;48.60
67899;DHT22;54699;51.796;10.956;2023-01-04T08:24:06;17.10;48.60
67899;DHT22;54699;51.796;10.956;2023-01-04T08:26:33;17.10;48.60
67899;DHT22;54699;51.796;10.956;2023-01-04T08:28:59;17.10;48.80
67899;DHT22;54699;51.796;10.956;2023-01-04T08:31:27;17.10;48.90
67899;DHT22;54699;51.796;10.956;2023-01-04T08:33:58;17.10;49.10
67899;DHT22;54699;51.796;10.956;2023-01-04T08:36:28;17.10;48.80
67899;DHT22;54699;51.796;10.956;2023-01-04T08:38:57;17.10;48.90
67899;DHT22;54699;51.796;10.956;2023-01-04T08:41:25;17.10;48.70
67899;DHT22;54699;51.796;10.956;2023-01-04T08:43:52;17.10;49.00
67899;DHT22;54699;51.796;10.956;2023-01-04T08:46:19;17.10;49.00
67899;DHT22;54699;51.796;10.956;2023-01-04T08:48:45;17.10;48.90
67899;DHT22;54699;51.796;10.956;2023-01-04T08:51:14;17.10;48.80
67899;DHT22;54699;51.796;10.956;2023-01-04T08:53:41;17.10;48.90
67899;DHT22;54699;51.796;10.956;2023-01-04T08:56:08;17.10;48.70
67899;DHT22;54699;51.796;10.956;2023-01-04T08:58:36;17.20;48.70
67899;DHT22;54699;51.796;10.956;2023-01-04T09:01:03;17.20;48.70
67899;DHT22;54699;51.796;10.956;2023-01-04T09:03:31;17.10;48.60
67899;DHT22;54699;51.796;10.956;2023-01-04T09:06:02;17.20;48.80
67899;DHT22;54699;51.796;10.956;2023-01-04T09:08:31;17.20;48.70
67899;DHT22;54699;51.796;10.956;2023-01-04T09:11:02;17.10;48.70
67899;DHT22;54699;51.796;10.956;2023-01-04T09:13:29;17.20;48.70
67899;DHT22;54699;51.796;10.956;2023-01-04T09:15:58;17.20;48.80
67899;DHT22;54699;51.796;10.956;2023-01-04T09:18:25;17.10;48.70
67899;DHT22;54699;51.796;10.956;2023-01-04T09:20:52;17.10;48.90
67899;DHT22;54699;51.796;10.956;2023-01-04T09:23:18;17.20;48.90
67899;DHT22;54699;51.796;10.956;2023-01-04T09:25:46;17.10;48.90
67899;DHT22;54699;51.796;10.956;2023-01-04T09:28:13;17.20;49.00
67899;DHT22;54699;51.796;10.956;2023-01-04T09:30:40;17.20;48.90
67899;DHT22;54699;51.796;10.956;2023-01-04T09:33:06;17.20;48.80
67899;DHT22;54699;51.796;10.956;2023-01-04T09:35:33;17.20;48.90
67899;DHT22;54699;51.796;10.956;2023-01-04T09:38:00;17.20;48.80
67899;DHT22;54699;51.796;10.956;2023-01-04T09:40:29;17.20;48.70
67899;DHT22;54699;51.796;10.956;2023-01-04T09:43:01;17.20;48.80
67899;DHT22;54699;51.796;10.956;2023-01-04T09:45:28;17.20;48.90
67899;DHT22;54699;51.796;10.956;2023-01-04T09:47:57;17.20;48.80
67899;DHT22;54699;51.796;10.956;2023-01-04T09:50:30;17.20;48.80
67899;DHT22;54699;51.796;10.956;2023-01-04T09:53:02;17.20;48.90
67899;DHT22;54699;51.796;10.956;2023-01-04T09:55:35;17.20;49.00
67899;DHT22;54699;51.796;10.956;2023-01-04T09:58:07;17.20;49.10
67899;DHT22;54699;51.796;10.956;2023-01-04T10:00:43;17.20;49.10
67899;DHT22;54699;51.796;10.956;2023-01-04T10:03:12;17.20;49.00
67899;DHT22;54699;51.796;10.956;2023-01-04T10:05:42;17.20;49.20
67899;DHT22;54699;51.796;10.956;2023-01-04T10:08:11;17.20;49.10
67899;DHT22;54699;51.796;10.956;2023-01-04T10:10:45;17.20;49.10
67899;DHT22;54699;51.796;10.956;2023-01-04T10:13:19;17.20;49.10
67899;DHT22;54699;51.796;10.956;2023-01-04T10:15:59;17.20;49.20
67899;DHT22;54699;51.796;10.956;2023-01-04T10:18:39;17.20;49.10
67899;DHT22;54699;51.796;10.956;2023-01-04T10:21:20;17.20;49.20
67899;DHT22;54699;51.796;10.956;2023-01-04T10:23:57;17.20;49.20
67899;DHT22;54699;51.796;10.956;2023-01-04T10:26:37;17.20;49.20
67899;DHT22;54699;51.796;10.956;2023-01-04T10:29:18;17.20;49.30
67899;DHT22;54699;51.796;10.956;2023-01-04T10:31:59;17.10;49.60
67899;DHT22;54699;51.796;10.956;2023-01-04T10:34:31;17.20;49.40
67899;DHT22;54699;51.796;10.956;2023-01-04T10:37:05;17.20;49.50
67899;DHT22;54699;51.796;10.956;2023-01-04T10:39:38;17.10;49.40
67899;DHT22;54699;51.796;10.956;2023-01-04T10:42:09;17.20;49.40
67899;DHT22;54699;51.796;10.956;2023-01-04T10:44:46;17.20;49.50
67899;DHT22;54699;51.796;10.956;2023-01-04T10:47:21;17.20;49.70
67899;DHT22;54699;51.796;10.956;2023-01-04T10:49:54;17.10;49.50
67899;DHT22;54699;51.796;10.956;2023-01-04T10:52:24;17.10;49.60
67899;DHT22;54699;51.796;10.956;2023-01-04T10:54:56;17.10;49.50
67899;DHT22;54699;51.796;10.956;2023-01-04T10:57:27;17.10;49.70
67899;DHT22;54699;51.796;10.956;2023-01-04T11:00:01;17.10;49.90
67899;DHT22;54699;51.796;10.956;2023-01-04T11:02:32;17.00;49.90
67899;DHT22;54699;51.796;10.956;2023-01-04T11:05:04;17.00;50.00
67899;DHT22;54699;51.796;10.956;2023-01-04T11:07:38;16.90;50.00
67899;DHT22;54699;51.796;10.956;2023-01-04T11:10:12;16.90;50.00
67899;DHT22;54699;51.796;10.956;2023-01-04T11:12:43;16.80;50.10
67899;DHT22;54699;51.796;10.956;2023-01-04T11:15:11;16.80;50.00
67899;DHT22;54699;51.796;10.956;2023-01-04T11:17:38;16.80;50.10
67899;DHT22;54699;51.796;10.956;2023-01-04T11:20:06;16.70;50.20
67899;DHT22;54699;51.796;10.956;2023-01-04T11:22:35;16.80;50.60
67899;DHT22;54699;51.796;10.956;2023-01-04T11:25:06;16.70;50.50
67899;DHT22;54699;51.796;10.956;2023-01-04T11:27:39;16.70;50.50
67899;DHT22;54699;51.796;10.956;2023-01-04T11:30:15;16.70;50.50
67899;DHT22;54699;51.796;10.956;2023-01-04T11:32:46;16.70;50.50
67899;DHT22;54699;51.796;10.956;2023-01-04T11:35:35;16.70;50.70
67899;DHT22;54699;51.796;10.956;2023-01-04T11:38:10;16.60;50.70
67899;DHT22;54699;51.796;10.956;2023-01-04T11:40:40;16.60;50.90
67899;DHT22;54699;51.796;10.956;2023-01-04T11:43:15;16.60;52.00
67899;DHT22;54699;51.796;10.956;2023-01-04T11:45:58;16.60;52.20
67899;DHT22;54699;51.796;10.956;2023-01-04T11:48:31;16.70;51.50
67899;DHT22;54699;51.796;10.956;2023-01-04T11:51:14;16.80;51.10
67899;DHT22;54699;51.796;10.956;2023-01-04T11:53:43;16.80;51.00
67899;DHT22;54699;51.796;10.956;2023-01-04T11:56:15;16.80;50.80
67899;DHT22;54699;51.796;10.956;2023-01-04T11:58:44;16.90;50.80
67899;DHT22;54699;51.796;10.956;2023-01-04T12:01:30;16.90;50.80
67899;DHT22;54699;51.796;10.956;2023-01-04T12:03:58;16.90;50.70
67899;DHT22;54699;51.796;10.956;2023-01-04T12:06:29;16.90;50.50
67899;DHT22;54699;51.796;10.956;2023-01-04T12:09:00;17.00;50.60
67899;DHT22;54699;51.796;10.956;2023-01-04T12:11:28;17.00;50.50
67899;DHT22;54699;51.796;10.956;2023-01-04T12:13:57;17.00;50.60
67899;DHT22;54699;51.796;10.956;2023-01-04T12:16:27;17.00;50.50
67899;DHT22;54699;51.796;10.956;2023-01-04T12:19:07;17.00;50.60
67899;DHT22;54699;51.796;10.956;2023-01-04T12:21:37;17.00;50.60
67899;DHT22;54699;51.796;10.956;2023-01-04T12:24:05;17.00;50.50
67899;DHT22;54699;51.796;10.956;2023-01-04T12:26:33;17.10;50.50
67899;DHT22;54699;51.796;10.956;2023-01-04T12:47:46;16.90;64.10
67899;DHT22;54699;51.796;10.956;2023-01-04T12:50:32;16.90;63.10
67899;DHT22;54699;51.796;10.956;2023-01-04T12:53:56;16.90;62.80
67899;DHT22;54699;51.796;10.956;2023-01-04T12:59:31;16.90;62.40
67899;DHT22;54699;51.796;10.956;2023-01-04T13:02:16;16.90;63.20
67899;DHT22;54699;51.796;10.956;2023-01-04T13:04:45;16.90;62.40
67899;DHT22;54699;51.796;10.956;2023-01-04T13:07:14;16.80;62.30
67899;DHT22;54699;51.796;10.956;2023-01-04T13:09:48;16.80;62.00
67899;DHT22;54699;51.796;10.956;2023-01-04T13:15:23;16.90;62.00
67899;DHT22;54699;51.796;10.956;2023-01-04T13:18:03;16.90;62.20
67899;DHT22;54699;51.796;10.956;2023-01-04T13:20:50;16.90;62.30
67899;DHT22;54699;51.796;10.956;2023-01-04T13:23:17;16.90;61.90
67899;DHT22;54699;51.796;10.956;2023-01-04T13:25:44;16.90;62.60
67899;DHT22;54699;51.796;10.956;2023-01-04T13:28:14;16.80;62.40
67899;DHT22;54699;51.796;10.956;2023-01-04T13:30:43;16.80;62.90
67899;DHT22;54699;51.796;10.956;2023-01-04T13:33:13;16.90;62.70
67899;DHT22;54699;51.796;10.956;2023-01-04T13:35:42;16.90;62.50
67899;DHT22;54699;51.796;10.956;2023-01-04T13:38:11;16.90;62.80
67899;DHT22;54699;51.796;10.956;2023-01-04T13:40:43;16.90;62.50
67899;DHT22;54699;51.796;10.956;2023-01-04T13:43:16;16.90;62.60
67899;DHT22;54699;51.796;10.956;2023-01-04T13:46:03;16.90;61.90
67899;DHT22;54699;51.796;10.956;2023-01-04T13:48:39;16.90;62.10
67899;DHT22;54699;51.796;10.956;2023-01-04T13:51:12;17.00;61.90
67899;DHT22;54699;51.796;10.956;2023-01-04T13:53:41;16.90;61.70
67899;DHT22;54699;51.796;10.956;2023-01-04T13:56:18;16.90;61.40
67899;DHT22;54699;51.796;10.956;2023-01-04T13:58:46;16.90;61.80
67899;DHT22;54699;51.796;10.956;2023-01-04T14:01:14;17.00;61.60
67899;DHT22;54699;51.796;10.956;2023-01-04T14:03:46;17.00;61.70
67899;DHT22;54699;51.796;10.956;2023-01-04T14:06:17;16.90;61.40
67899;DHT22;54699;51.796;10.956;2023-01-04T14:08:49;17.00;61.50
67899;DHT22;54699;51.796;10.956;2023-01-04T14:11:20;17.00;61.50
67899;DHT22;54699;51.796;10.956;2023-01-04T14:17:22;17.00;61.40
67899;DHT22;54699;51.796;10.956;2023-01-04T14:19:58;17.00;61.60
67899;DHT22;54699;51.796;10.956;2023-01-04T14:22:35;17.00;61.10
67899;DHT22;54699;51.796;10.956;2023-01-04T14:28:17;17.00;61.50
67899;DHT22;54699;51.796;10.956;2023-01-04T14:30:53;17.00;61.30
67899;DHT22;54699;51.796;10.956;2023-01-04T14:33:24;17.00;61.40
67899;DHT22;54699;51.796;10.956;2023-01-04T14:36:02;17.00;61.20
67899;DHT22;54699;51.796;10.956;2023-01-04T14:38:36;17.00;61.60
67899;DHT22;54699;51.796;10.956;2023-01-04T14:41:11;17.00;61.30
67899;DHT22;54699;51.796;10.956;2023-01-04T14:43:46;17.00;61.30
67899;DHT22;54699;51.796;10.956;2023-01-04T14:46:14;17.00;61.50
67899;DHT22;54699;51.796;10.956;2023-01-04T14:48:42;17.00;61.40
67899;DHT22;54699;51.796;10.956;2023-01-04T14:51:09;17.00;61.20
67899;DHT22;54699;51.796;10.956;2023-01-04T14:53:41;17.00;61.30
67899;DHT22;54699;51.796;10.956;2023-01-04T14:56:09;17.00;61.10
67899;DHT22;54699;51.796;10.956;2023-01-04T14:58:37;17.00;61.10
67899;DHT22;54699;51.796;10.956;2023-01-04T15:01:04;17.00;61.40
67899;DHT22;54699;51.796;10.956;2023-01-04T15:03:31;17.10;61.40
67899;DHT22;54699;51.796;10.956;2023-01-04T15:05:59;17.10;61.40
67899;DHT22;54699;51.796;10.956;2023-01-04T15:08:26;17.10;61.40
67899;DHT22;54699;51.796;10.956;2023-01-04T15:10:52;17.10;61.20
67899;DHT22;54699;51.796;10.956;2023-01-04T15:13:19;17.10;61.20
67899;DHT22;54699;51.796;10.956;2023-01-04T15:15:46;17.10;61.20
67899;DHT22;54699;51.796;10.956;2023-01-04T15:18:12;17.10;61.20
67899;DHT22;54699;51.796;10.956;2023-01-04T15:20:41;17.10;61.10
67899;DHT22;54699;51.796;10.956;2023-01-04T15:23:09;17.10;61.20
67899;DHT22;54699;51.796;10.956;2023-01-04T15:25:37;17.10;61.10
67899;DHT22;54699;51.796;10.956;2023-01-04T15:28:04;17.10;61.20
67899;DHT22;54699;51.796;10.956;2023-01-04T15:30:31;17.10;61.20
67899;DHT22;54699;51.796;10.956;2023-01-04T15:32:58;17.10;61.20
67899;DHT22;54699;51.796;10.956;2023-01-04T15:35:24;17.10;61.20
67899;DHT22;54699;51.796;10.956;2023-01-04T15:37:51;17.10;61.10
67899;DHT22;54699;51.796;10.956;2023-01-04T15:40:19;17.10;61.20
67899;DHT22;54699;51.796;10.956;2023-01-04T15:42:46;17.10;61.10
67899;DHT22;54699;51.796;10.956;2023-01-04T15:45:23;17.10;61.20
67899;DHT22;54699;51.796;10.956;2023-01-04T15:47:50;17.10;61.10
67899;DHT22;54699;51.796;10.956;2023-01-04T15:50:17;17.10;61.10
67899;DHT22;54699;51.796;10.956;2023-01-04T15:52:44;17.10;61.20
67899;DHT22;54699;51.796;10.956;2023-01-04T15:55:11;17.10;61.10
67899;DHT22;54699;51.796;10.956;2023-01-04T15:57:39;17.10;61.20
67899;DHT22;54699;51.796;10.956;2023-01-04T16:00:07;17.10;61.00
67899;DHT22;54699;51.796;10.956;2023-01-04T16:02:34;17.10;61.10
67899;DHT22;54699;51.796;10.956;2023-01-04T16:05:01;17.10;61.10
67899;DHT22;54699;51.796;10.956;2023-01-04T16:07:28;17.10;61.20
67899;DHT22;54699;51.796;10.956;2023-01-04T16:09:54;17.10;61.10
67899;DHT22;54699;51.796;10.956;2023-01-04T16:12:21;17.10;61.10